sensor_id;sensor_type;location;lat;lon;timestamp;P1;durP1;ratioP1;P2;durP2;ratioP2
19946;SDS011;10135;50.702;7.276;2023-07-29T05:32:13;1.10;;;1.10;;
19946;SDS011;10135;50.702;7.276;2023-07-29T05:34:16;1.02;;;1.00;;
19946;SDS011;10135;50.702;7.276;2023-07-29T05:36:17;1.65;;;1.23;;
19946;SDS011;10135;50.702;7.276;2023-07-29T05:38:24;1.10;;;1.10;;
19946;SDS011;10135;50.702;7.276;2023-07-29T05:40:34;1.20;;;1.20;;
19946;SDS011;10135;50.702;7.276;2023-07-29T05:42:35;1.30;;;1.30;;
19946;SDS011;10135;50.702;7.276;2023-07-29T05:44:36;1.15;;;1.05;;
19946;SDS011;10135;50.702;7.276;2023-07-29T05:46:37;1.23;;;1.10;;
19946;SDS011;10135;50.702;7.276;2023-07-29T05:48:37;1.00;;;1.00;;
19946;SDS011;10135;50.702;7.276;2023-07-29T05:50:38;1.05;;;1.05;;
19946;SDS011;10135;50.702;7.276;2023-07-29T05:52:41;1.00;;;1.00;;
19946;SDS011;10135;50.702;7.276;2023-07-29T05:54:53;0.93;;;0.93;;
19946;SDS011;10135;50.702;7.276;2023-07-29T05:57:04;1.23;;;1.23;;
19946;SDS011;10135;50.702;7.276;2023-07-29T05:59:25;1.20;;;1.10;;
19946;SDS011;10135;50.702;7.276;2023-07-29T06:01:48;1.75;;;1.02;;
19946;SDS011;10135;50.702;7.276;2023-07-29T06:03:58;1.00;;;1.00;;
19946;SDS011;10135;50.702;7.276;2023-07-29T06:06:01;1.40;;;1.30;;
19946;SDS011;10135;50.702;7.276;2023-07-29T06:09:19;1.27;;;1.27;;
19946;SDS011;10135;50.702;7.276;2023-07-29T06:28:35;1.52;;;1.13;;
19946;SDS011;10135;50.702;7.276;2023-07-29T06:34:37;1.30;;;1.20;;
19946;SDS011;10135;50.702;7.276;2023-07-29T06:36:46;0.90;;;0.90;;
19946;SDS011;10135;50.702;7.276;2023-07-29T06:53:22;1.17;;;1.17;;
19946;SDS011;10135;50.702;7.276;2023-07-29T06:59:00;1.25;;;1.10;;
19946;SDS011;10135;50.702;7.276;2023-07-29T07:13:36;1.08;;;1.00;;
19946;SDS011;10135;50.702;7.276;2023-07-29T07:15:44;1.20;;;1.20;;
19946;SDS011;10135;50.702;7.276;2023-07-29T07:17:51;1.13;;;1.13;;
19946;SDS011;10135;50.702;7.276;2023-07-29T07:19:59;1.35;;;1.30;;
19946;SDS011;10135;50.702;7.276;2023-07-29T07:22:03;1.50;;;1.50;;
19946;SDS011;10135;50.702;7.276;2023-07-29T07:24:06;1.48;;;1.38;;
19946;SDS011;10135;50.702;7.276;2023-07-29T07:28:37;1.35;;;1.35;;
19946;SDS011;10135;50.702;7.276;2023-07-29T07:30:58;1.45;;;1.42;;
19946;SDS011;10135;50.702;7.276;2023-07-29T07:32:59;1.42;;;1.42;;
19946;SDS011;10135;50.702;7.276;2023-07-29T07:38:08;1.45;;;1.45;;
19946;SDS011;10135;50.702;7.276;2023-07-29T07:43:20;1.60;;;1.55;;
19946;SDS011;10135;50.702;7.276;2023-07-29T07:47:48;1.63;;;1.63;;
19946;SDS011;10135;50.702;7.276;2023-07-29T07:49:56;1.88;;;1.77;;
19946;SDS011;10135;50.702;7.276;2023-07-29T07:52:09;1.80;;;1.70;;
19946;SDS011;10135;50.702;7.276;2023-07-29T07:56:32;1.70;;;1.60;;
19946;SDS011;10135;50.702;7.276;2023-07-29T07:59:01;1.98;;;1.73;;
19946;SDS011;10135;50.702;7.276;2023-07-29T08:01:06;2.63;;;2.00;;
19946;SDS011;10135;50.702;7.276;2023-07-29T08:03:08;1.77;;;1.77;;
19946;SDS011;10135;50.702;7.276;2023-07-29T08:05:09;1.98;;;1.85;;
19946;SDS011;10135;50.702;7.276;2023-07-29T08:07:09;1.80;;;1.80;;
19946;SDS011;10135;50.702;7.276;2023-07-29T08:09:10;2.00;;;1.90;;
19946;SDS011;10135;50.702;7.276;2023-07-29T08:11:11;1.70;;;1.60;;
19946;SDS011;10135;50.702;7.276;2023-07-29T08:13:11;4.90;;;1.83;;
19946;SDS011;10135;50.702;7.276;2023-07-29T08:15:12;1.77;;;1.67;;
19946;SDS011;10135;50.702;7.276;2023-07-29T08:17:13;1.67;;;1.67;;
19946;SDS011;10135;50.702;7.276;2023-07-29T08:19:13;1.58;;;1.58;;
19946;SDS011;10135;50.702;7.276;2023-07-29T08:21:14;1.60;;;1.60;;
19946;SDS011;10135;50.702;7.276;2023-07-29T08:23:14;1.52;;;1.48;;
19946;SDS011;10135;50.702;7.276;2023-07-29T08:25:15;1.50;;;1.50;;
19946;SDS011;10135;50.702;7.276;2023-07-29T08:27:16;1.55;;;1.40;;
19946;SDS011;10135;50.702;7.276;2023-07-29T08:29:16;1.63;;;1.52;;
19946;SDS011;10135;50.702;7.276;2023-07-29T08:31:17;1.40;;;1.40;;
19946;SDS011;10135;50.702;7.276;2023-07-29T08:33:17;1.60;;;1.60;;
19946;SDS011;10135;50.702;7.276;2023-07-29T08:35:18;1.70;;;1.70;;
19946;SDS011;10135;50.702;7.276;2023-07-29T08:37:19;1.30;;;1.30;;
19946;SDS011;10135;50.702;7.276;2023-07-29T08:39:19;1.73;;;1.73;;
19946;SDS011;10135;50.702;7.276;2023-07-29T08:41:29;1.40;;;1.40;;
19946;SDS011;10135;50.702;7.276;2023-07-29T08:46:20;1.70;;;1.60;;
19946;SDS011;10135;50.702;7.276;2023-07-29T08:48:23;1.83;;;1.73;;
19946;SDS011;10135;50.702;7.276;2023-07-29T08:50:32;1.70;;;1.70;;
19946;SDS011;10135;50.702;7.276;2023-07-29T08:52:35;1.60;;;1.50;;
19946;SDS011;10135;50.702;7.276;2023-07-29T08:54:37;1.70;;;1.60;;
19946;SDS011;10135;50.702;7.276;2023-07-29T08:56:40;1.50;;;1.50;;
19946;SDS011;10135;50.702;7.276;2023-07-29T08:58:41;1.73;;;1.63;;
19946;SDS011;10135;50.702;7.276;2023-07-29T09:00:43;1.50;;;1.50;;
19946;SDS011;10135;50.702;7.276;2023-07-29T09:02:44;1.58;;;1.58;;
19946;SDS011;10135;50.702;7.276;2023-07-29T09:04:45;1.35;;;1.35;;
19946;SDS011;10135;50.702;7.276;2023-07-29T09:06:45;1.70;;;1.60;;
19946;SDS011;10135;50.702;7.276;2023-07-29T09:08:50;1.60;;;1.50;;
19946;SDS011;10135;50.702;7.276;2023-07-29T09:10:53;3.05;;;1.58;;
19946;SDS011;10135;50.702;7.276;2023-07-29T09:12:58;1.65;;;1.65;;
19946;SDS011;10135;50.702;7.276;2023-07-29T09:14:58;1.52;;;1.52;;
19946;SDS011;10135;50.702;7.276;2023-07-29T09:16:59;1.40;;;1.40;;
19946;SDS011;10135;50.702;7.276;2023-07-29T09:19:00;1.60;;;1.60;;
19946;SDS011;10135;50.702;7.276;2023-07-29T09:21:03;1.50;;;1.50;;
19946;SDS011;10135;50.702;7.276;2023-07-29T09:23:06;1.45;;;1.42;;
19946;SDS011;10135;50.702;7.276;2023-07-29T09:25:12;1.50;;;1.40;;
19946;SDS011;10135;50.702;7.276;2023-07-29T09:29:27;1.80;;;1.70;;
19946;SDS011;10135;50.702;7.276;2023-07-29T09:31:28;3.78;;;1.40;;
19946;SDS011;10135;50.702;7.276;2023-07-29T09:33:30;1.60;;;1.50;;
19946;SDS011;10135;50.702;7.276;2023-07-29T09:35:38;1.42;;;1.42;;
19946;SDS011;10135;50.702;7.276;2023-07-29T09:37:39;1.30;;;1.30;;
19946;SDS011;10135;50.702;7.276;2023-07-29T09:39:40;1.95;;;1.50;;
19946;SDS011;10135;50.702;7.276;2023-07-29T09:41:48;1.83;;;1.70;;
19946;SDS011;10135;50.702;7.276;2023-07-29T09:43:55;1.65;;;1.63;;
19946;SDS011;10135;50.702;7.276;2023-07-29T09:46:01;2.20;;;1.92;;
19946;SDS011;10135;50.702;7.276;2023-07-29T09:48:04;1.75;;;1.70;;
19946;SDS011;10135;50.702;7.276;2023-07-29T09:50:09;1.90;;;1.80;;
19946;SDS011;10135;50.702;7.276;2023-07-29T09:52:09;1.38;;;1.38;;
19946;SDS011;10135;50.702;7.276;2023-07-29T09:54:10;1.42;;;1.42;;
19946;SDS011;10135;50.702;7.276;2023-07-29T09:56:13;1.50;;;1.50;;
19946;SDS011;10135;50.702;7.276;2023-07-29T09:58:15;1.80;;;1.70;;
19946;SDS011;10135;50.702;7.276;2023-07-29T10:00:26;1.50;;;1.50;;
19946;SDS011;10135;50.702;7.276;2023-07-29T10:02:31;1.52;;;1.52;;
19946;SDS011;10135;50.702;7.276;2023-07-29T10:04:32;2.70;;;1.58;;
19946;SDS011;10135;50.702;7.276;2023-07-29T10:06:34;1.63;;;1.52;;
19946;SDS011;10135;50.702;7.276;2023-07-29T10:08:34;1.45;;;1.45;;
19946;SDS011;10135;50.702;7.276;2023-07-29T10:10:35;1.33;;;1.33;;
19946;SDS011;10135;50.702;7.276;2023-07-29T10:12:36;1.40;;;1.40;;
19946;SDS011;10135;50.702;7.276;2023-07-29T10:14:38;1.50;;;1.50;;
19946;SDS011;10135;50.702;7.276;2023-07-29T10:16:42;1.58;;;1.50;;
19946;SDS011;10135;50.702;7.276;2023-07-29T10:18:45;1.65;;;1.55;;
19946;SDS011;10135;50.702;7.276;2023-07-29T10:20:46;1.25;;;1.25;;
19946;SDS011;10135;50.702;7.276;2023-07-29T10:22:51;1.42;;;1.42;;
19946;SDS011;10135;50.702;7.276;2023-07-29T10:24:56;1.50;;;1.50;;
19946;SDS011;10135;50.702;7.276;2023-07-29T10:27:04;1.40;;;1.40;;
19946;SDS011;10135;50.702;7.276;2023-07-29T10:29:08;1.45;;;1.40;;
19946;SDS011;10135;50.702;7.276;2023-07-29T10:31:15;1.20;;;1.20;;
19946;SDS011;10135;50.702;7.276;2023-07-29T10:33:17;1.60;;;1.60;;
19946;SDS011;10135;50.702;7.276;2023-07-29T10:35:18;1.40;;;1.40;;
19946;SDS011;10135;50.702;7.276;2023-07-29T10:37:19;1.42;;;1.42;;
19946;SDS011;10135;50.702;7.276;2023-07-29T10:39:24;1.60;;;1.50;;
19946;SDS011;10135;50.702;7.276;2023-07-29T10:41:53;1.70;;;1.60;;
19946;SDS011;10135;50.702;7.276;2023-07-29T10:44:00;1.40;;;1.30;;
19946;SDS011;10135;50.702;7.276;2023-07-29T10:46:20;1.42;;;1.42;;
19946;SDS011;10135;50.702;7.276;2023-07-29T10:50:35;1.30;;;1.30;;
19946;SDS011;10135;50.702;7.276;2023-07-29T10:54:43;1.45;;;1.45;;
19946;SDS011;10135;50.702;7.276;2023-07-29T10:56:48;1.60;;;1.50;;
19946;SDS011;10135;50.702;7.276;2023-07-29T10:58:49;1.70;;;1.60;;
19946;SDS011;10135;50.702;7.276;2023-07-29T11:00:50;1.45;;;1.35;;
19946;SDS011;10135;50.702;7.276;2023-07-29T11:02:59;2.97;;;1.63;;
19946;SDS011;10135;50.702;7.276;2023-07-29T11:05:06;1.50;;;1.50;;
19946;SDS011;10135;50.702;7.276;2023-07-29T11:11:42;1.40;;;1.40;;
19946;SDS011;10135;50.702;7.276;2023-07-29T11:13:43;1.70;;;1.50;;
19946;SDS011;10135;50.702;7.276;2023-07-29T11:15:44;1.63;;;1.63;;
19946;SDS011;10135;50.702;7.276;2023-07-29T11:19:54;1.77;;;1.67;;
19946;SDS011;10135;50.702;7.276;2023-07-29T11:22:00;1.63;;;1.52;;
19946;SDS011;10135;50.702;7.276;2023-07-29T11:24:00;1.80;;;1.70;;
19946;SDS011;10135;50.702;7.276;2023-07-29T11:26:02;1.70;;;1.60;;
19946;SDS011;10135;50.702;7.276;2023-07-29T11:28:04;1.55;;;1.55;;
19946;SDS011;10135;50.702;7.276;2023-07-29T11:30:06;1.90;;;1.80;;
19946;SDS011;10135;50.702;7.276;2023-07-29T11:41:20;1.50;;;1.40;;
19946;SDS011;10135;50.702;7.276;2023-07-29T11:43:27;1.30;;;1.30;;
19946;SDS011;10135;50.702;7.276;2023-07-29T11:45:34;1.40;;;1.40;;
19946;SDS011;10135;50.702;7.276;2023-07-29T11:48:53;1.35;;;1.35;;
19946;SDS011;10135;50.702;7.276;2023-07-29T11:51:06;1.60;;;1.50;;
19946;SDS011;10135;50.702;7.276;2023-07-29T11:53:40;1.50;;;1.50;;
19946;SDS011;10135;50.702;7.276;2023-07-29T11:55:43;1.50;;;1.50;;
19946;SDS011;10135;50.702;7.276;2023-07-29T11:57:43;1.50;;;1.50;;
19946;SDS011;10135;50.702;7.276;2023-07-29T11:59:44;1.30;;;1.30;;
19946;SDS011;10135;50.702;7.276;2023-07-29T12:01:47;1.42;;;1.42;;
19946;SDS011;10135;50.702;7.276;2023-07-29T12:03:47;1.40;;;1.40;;
19946;SDS011;10135;50.702;7.276;2023-07-29T12:05:50;1.30;;;1.30;;
19946;SDS011;10135;50.702;7.276;2023-07-29T12:07:51;1.88;;;1.50;;
19946;SDS011;10135;50.702;7.276;2023-07-29T12:09:52;1.83;;;1.55;;
19946;SDS011;10135;50.702;7.276;2023-07-29T12:11:53;1.50;;;1.50;;
19946;SDS011;10135;50.702;7.276;2023-07-29T12:13:54;1.48;;;1.38;;
19946;SDS011;10135;50.702;7.276;2023-07-29T12:16:00;1.65;;;1.40;;
19946;SDS011;10135;50.702;7.276;2023-07-29T12:18:04;1.30;;;1.30;;
19946;SDS011;10135;50.702;7.276;2023-07-29T12:20:07;1.42;;;1.42;;
19946;SDS011;10135;50.702;7.276;2023-07-29T12:22:10;1.30;;;1.30;;
19946;SDS011;10135;50.702;7.276;2023-07-29T12:24:14;1.63;;;1.52;;
19946;SDS011;10135;50.702;7.276;2023-07-29T12:26:15;1.48;;;1.48;;
19946;SDS011;10135;50.702;7.276;2023-07-29T12:28:16;1.40;;;1.40;;
19946;SDS011;10135;50.702;7.276;2023-07-29T12:30:19;1.45;;;1.38;;
19946;SDS011;10135;50.702;7.276;2023-07-29T12:32:24;1.50;;;1.50;;
19946;SDS011;10135;50.702;7.276;2023-07-29T12:34:27;1.48;;;1.40;;
19946;SDS011;10135;50.702;7.276;2023-07-29T12:36:45;2.45;;;1.35;;
19946;SDS011;10135;50.702;7.276;2023-07-29T12:38:48;1.38;;;1.38;;
19946;SDS011;10135;50.702;7.276;2023-07-29T12:40:49;1.30;;;1.30;;
19946;SDS011;10135;50.702;7.276;2023-07-29T12:42:50;3.85;;;1.40;;
19946;SDS011;10135;50.702;7.276;2023-07-29T12:44:51;3.33;;;1.63;;
19946;SDS011;10135;50.702;7.276;2023-07-29T12:46:52;1.27;;;1.27;;
19946;SDS011;10135;50.702;7.276;2023-07-29T12:48:53;1.35;;;1.33;;
19946;SDS011;10135;50.702;7.276;2023-07-29T12:50:53;1.10;;;1.10;;
19946;SDS011;10135;50.702;7.276;2023-07-29T12:52:54;1.20;;;1.20;;
19946;SDS011;10135;50.702;7.276;2023-07-29T12:54:54;1.20;;;1.20;;
19946;SDS011;10135;50.702;7.276;2023-07-29T12:56:55;1.30;;;1.30;;
19946;SDS011;10135;50.702;7.276;2023-07-29T12:58:56;1.65;;;1.20;;
19946;SDS011;10135;50.702;7.276;2023-07-29T13:00:58;1.17;;;1.17;;
19946;SDS011;10135;50.702;7.276;2023-07-29T13:02:59;1.02;;;1.02;;
19946;SDS011;10135;50.702;7.276;2023-07-29T13:04:59;1.40;;;1.40;;
19946;SDS011;10135;50.702;7.276;2023-07-29T13:07:00;1.50;;;1.40;;
19946;SDS011;10135;50.702;7.276;2023-07-29T13:09:01;1.10;;;1.10;;
19946;SDS011;10135;50.702;7.276;2023-07-29T13:11:02;1.20;;;1.20;;
19946;SDS011;10135;50.702;7.276;2023-07-29T13:13:03;1.15;;;1.15;;
19946;SDS011;10135;50.702;7.276;2023-07-29T13:15:04;1.17;;;1.17;;
19946;SDS011;10135;50.702;7.276;2023-07-29T13:17:06;1.33;;;1.23;;
19946;SDS011;10135;50.702;7.276;2023-07-29T13:19:06;1.30;;;1.30;;
19946;SDS011;10135;50.702;7.276;2023-07-29T13:21:07;1.30;;;1.30;;
19946;SDS011;10135;50.702;7.276;2023-07-29T13:23:08;1.30;;;1.30;;
19946;SDS011;10135;50.702;7.276;2023-07-29T13:25:08;1.20;;;1.20;;
19946;SDS011;10135;50.702;7.276;2023-07-29T13:27:09;1.40;;;1.40;;
19946;SDS011;10135;50.702;7.276;2023-07-29T13:29:10;1.40;;;1.40;;
19946;SDS011;10135;50.702;7.276;2023-07-29T13:31:10;1.08;;;1.08;;
19946;SDS011;10135;50.702;7.276;2023-07-29T13:33:11;1.02;;;1.02;;
19946;SDS011;10135;50.702;7.276;2023-07-29T13:35:12;1.23;;;1.23;;
19946;SDS011;10135;50.702;7.276;2023-07-29T13:37:12;1.38;;;1.38;;
19946;SDS011;10135;50.702;7.276;2023-07-29T13:39:13;1.20;;;1.20;;
19946;SDS011;10135;50.702;7.276;2023-07-29T13:41:13;1.20;;;1.20;;
19946;SDS011;10135;50.702;7.276;2023-07-29T13:43:14;1.20;;;1.20;;
19946;SDS011;10135;50.702;7.276;2023-07-29T13:45:15;1.20;;;1.20;;
19946;SDS011;10135;50.702;7.276;2023-07-29T13:47:15;1.40;;;1.40;;
19946;SDS011;10135;50.702;7.276;2023-07-29T13:49:16;1.10;;;1.10;;
19946;SDS011;10135;50.702;7.276;2023-07-29T13:51:17;1.38;;;1.38;;
19946;SDS011;10135;50.702;7.276;2023-07-29T13:53:17;1.20;;;1.20;;
19946;SDS011;10135;50.702;7.276;2023-07-29T13:55:18;1.30;;;1.30;;
19946;SDS011;10135;50.702;7.276;2023-07-29T13:57:19;1.33;;;1.33;;
19946;SDS011;10135;50.702;7.276;2023-07-29T13:59:20;1.40;;;1.40;;
19946;SDS011;10135;50.702;7.276;2023-07-29T14:01:20;1.33;;;1.33;;
19946;SDS011;10135;50.702;7.276;2023-07-29T14:03:21;1.33;;;1.33;;
19946;SDS011;10135;50.702;7.276;2023-07-29T14:05:22;1.40;;;1.38;;
19946;SDS011;10135;50.702;7.276;2023-07-29T14:07:22;1.10;;;1.10;;
19946;SDS011;10135;50.702;7.276;2023-07-29T14:09:23;1.67;;;1.50;;
19946;SDS011;10135;50.702;7.276;2023-07-29T14:11:25;1.23;;;1.17;;
19946;SDS011;10135;50.702;7.276;2023-07-29T14:13:25;1.30;;;1.30;;
19946;SDS011;10135;50.702;7.276;2023-07-29T14:15:26;1.50;;;1.50;;
19946;SDS011;10135;50.702;7.276;2023-07-29T14:17:28;1.15;;;1.15;;
19946;SDS011;10135;50.702;7.276;2023-07-29T14:19:29;1.08;;;1.08;;
19946;SDS011;10135;50.702;7.276;2023-07-29T14:21:29;1.38;;;1.38;;
19946;SDS011;10135;50.702;7.276;2023-07-29T14:23:30;1.40;;;1.40;;
19946;SDS011;10135;50.702;7.276;2023-07-29T14:25:32;1.38;;;1.38;;
19946;SDS011;10135;50.702;7.276;2023-07-29T14:27:33;1.30;;;1.30;;
19946;SDS011;10135;50.702;7.276;2023-07-29T14:29:33;1.77;;;1.50;;
19946;SDS011;10135;50.702;7.276;2023-07-29T14:31:34;1.60;;;1.50;;
19946;SDS011;10135;50.702;7.276;2023-07-29T14:33:35;1.40;;;1.40;;
19946;SDS011;10135;50.702;7.276;2023-07-29T14:35:35;1.45;;;1.45;;
19946;SDS011;10135;50.702;7.276;2023-07-29T14:37:36;1.38;;;1.38;;
19946;SDS011;10135;50.702;7.276;2023-07-29T14:39:37;1.42;;;1.42;;
19946;SDS011;10135;50.702;7.276;2023-07-29T14:41:38;1.40;;;1.40;;
19946;SDS011;10135;50.702;7.276;2023-07-29T14:43:40;1.52;;;1.52;;
19946;SDS011;10135;50.702;7.276;2023-07-29T14:45:40;1.45;;;1.35;;
19946;SDS011;10135;50.702;7.276;2023-07-29T14:47:41;1.30;;;1.30;;
19946;SDS011;10135;50.702;7.276;2023-07-29T14:49:41;1.40;;;1.40;;
19946;SDS011;10135;50.702;7.276;2023-07-29T14:51:44;1.70;;;1.60;;
19946;SDS011;10135;50.702;7.276;2023-07-29T14:53:44;1.33;;;1.23;;
19946;SDS011;10135;50.702;7.276;2023-07-29T14:55:45;1.63;;;1.52;;
19946;SDS011;10135;50.702;7.276;2023-07-29T14:57:46;3.33;;;1.60;;
19946;SDS011;10135;50.702;7.276;2023-07-29T14:59:47;1.85;;;1.40;;
19946;SDS011;10135;50.702;7.276;2023-07-29T15:01:47;1.40;;;1.40;;
19946;SDS011;10135;50.702;7.276;2023-07-29T15:03:48;1.48;;;1.40;;
19946;SDS011;10135;50.702;7.276;2023-07-29T15:05:49;1.40;;;1.35;;
19946;SDS011;10135;50.702;7.276;2023-07-29T15:07:49;1.60;;;1.50;;
19946;SDS011;10135;50.702;7.276;2023-07-29T15:09:50;1.60;;;1.50;;
19946;SDS011;10135;50.702;7.276;2023-07-29T15:11:51;1.30;;;1.30;;
19946;SDS011;10135;50.702;7.276;2023-07-29T15:13:51;1.60;;;1.60;;
19946;SDS011;10135;50.702;7.276;2023-07-29T15:15:52;1.40;;;1.40;;
19946;SDS011;10135;50.702;7.276;2023-07-29T15:17:53;1.40;;;1.40;;
19946;SDS011;10135;50.702;7.276;2023-07-29T15:19:53;1.50;;;1.50;;
19946;SDS011;10135;50.702;7.276;2023-07-29T15:21:54;1.48;;;1.48;;
19946;SDS011;10135;50.702;7.276;2023-07-29T15:23:54;1.42;;;1.42;;
19946;SDS011;10135;50.702;7.276;2023-07-29T15:25:55;1.80;;;1.70;;
19946;SDS011;10135;50.702;7.276;2023-07-29T15:27:56;1.80;;;1.70;;
19946;SDS011;10135;50.702;7.276;2023-07-29T15:29:58;1.33;;;1.33;;
19946;SDS011;10135;50.702;7.276;2023-07-29T15:34:16;1.65;;;1.63;;
19946;SDS011;10135;50.702;7.276;2023-07-29T15:47:08;1.60;;;1.60;;
19946;SDS011;10135;50.702;7.276;2023-07-29T15:49:09;1.50;;;1.50;;
19946;SDS011;10135;50.702;7.276;2023-07-29T15:51:10;1.70;;;1.60;;
19946;SDS011;10135;50.702;7.276;2023-07-29T15:53:11;1.50;;;1.50;;
19946;SDS011;10135;50.702;7.276;2023-07-29T15:55:12;1.80;;;1.70;;
19946;SDS011;10135;50.702;7.276;2023-07-29T15:57:12;1.45;;;1.45;;
19946;SDS011;10135;50.702;7.276;2023-07-29T15:59:13;1.60;;;1.50;;
19946;SDS011;10135;50.702;7.276;2023-07-29T16:01:14;1.70;;;1.70;;
19946;SDS011;10135;50.702;7.276;2023-07-29T16:03:14;1.65;;;1.65;;
19946;SDS011;10135;50.702;7.276;2023-07-29T16:05:15;2.15;;;1.92;;
19946;SDS011;10135;50.702;7.276;2023-07-29T16:07:16;1.70;;;1.70;;
19946;SDS011;10135;50.702;7.276;2023-07-29T16:09:16;1.80;;;1.67;;
19946;SDS011;10135;50.702;7.276;2023-07-29T16:11:21;2.00;;;1.80;;
19946;SDS011;10135;50.702;7.276;2023-07-29T16:13:21;1.60;;;1.60;;
19946;SDS011;10135;50.702;7.276;2023-07-29T16:15:22;1.75;;;1.65;;
19946;SDS011;10135;50.702;7.276;2023-07-29T16:17:23;1.90;;;1.80;;
19946;SDS011;10135;50.702;7.276;2023-07-29T16:19:24;1.60;;;1.50;;
19946;SDS011;10135;50.702;7.276;2023-07-29T16:21:27;2.13;;;1.60;;
19946;SDS011;10135;50.702;7.276;2023-07-29T16:23:28;1.67;;;1.58;;
19946;SDS011;10135;50.702;7.276;2023-07-29T16:25:31;1.70;;;1.60;;
19946;SDS011;10135;50.702;7.276;2023-07-29T16:27:32;1.60;;;1.60;;
19946;SDS011;10135;50.702;7.276;2023-07-29T16:29:33;1.70;;;1.60;;
19946;SDS011;10135;50.702;7.276;2023-07-29T16:31:33;1.60;;;1.60;;
19946;SDS011;10135;50.702;7.276;2023-07-29T16:33:35;1.67;;;1.67;;
19946;SDS011;10135;50.702;7.276;2023-07-29T16:35:35;2.17;;;1.80;;
19946;SDS011;10135;50.702;7.276;2023-07-29T16:37:36;1.40;;;1.40;;
19946;SDS011;10135;50.702;7.276;2023-07-29T16:39:36;1.65;;;1.58;;
19946;SDS011;10135;50.702;7.276;2023-07-29T16:41:37;1.90;;;1.80;;
19946;SDS011;10135;50.702;7.276;2023-07-29T16:43:38;2.00;;;1.90;;
19946;SDS011;10135;50.702;7.276;2023-07-29T16:45:41;1.60;;;1.60;;
19946;SDS011;10135;50.702;7.276;2023-07-29T16:47:42;2.13;;;1.88;;
19946;SDS011;10135;50.702;7.276;2023-07-29T16:49:43;1.67;;;1.67;;
19946;SDS011;10135;50.702;7.276;2023-07-29T16:51:44;2.00;;;1.80;;
19946;SDS011;10135;50.702;7.276;2023-07-29T16:53:44;1.90;;;1.80;;
19946;SDS011;10135;50.702;7.276;2023-07-29T16:55:45;1.67;;;1.67;;
19946;SDS011;10135;50.702;7.276;2023-07-29T16:57:46;1.80;;;1.80;;
19946;SDS011;10135;50.702;7.276;2023-07-29T16:59:46;2.92;;;1.80;;
19946;SDS011;10135;50.702;7.276;2023-07-29T17:01:47;1.60;;;1.60;;
19946;SDS011;10135;50.702;7.276;2023-07-29T17:03:48;1.80;;;1.70;;
19946;SDS011;10135;50.702;7.276;2023-07-29T17:05:48;2.00;;;1.90;;
19946;SDS011;10135;50.702;7.276;2023-07-29T17:07:53;1.70;;;1.70;;
19946;SDS011;10135;50.702;7.276;2023-07-29T17:09:53;1.80;;;1.70;;
19946;SDS011;10135;50.702;7.276;2023-07-29T17:11:54;1.60;;;1.60;;
19946;SDS011;10135;50.702;7.276;2023-07-29T17:13:59;1.60;;;1.60;;
19946;SDS011;10135;50.702;7.276;2023-07-29T17:15:59;1.73;;;1.73;;
19946;SDS011;10135;50.702;7.276;2023-07-29T17:18:00;1.88;;;1.70;;
19946;SDS011;10135;50.702;7.276;2023-07-29T17:20:01;1.48;;;1.48;;
19946;SDS011;10135;50.702;7.276;2023-07-29T17:22:02;1.67;;;1.63;;
19946;SDS011;10135;50.702;7.276;2023-07-29T17:24:03;2.00;;;1.90;;
19946;SDS011;10135;50.702;7.276;2023-07-29T17:26:04;1.98;;;1.88;;
19946;SDS011;10135;50.702;7.276;2023-07-29T17:28:05;1.55;;;1.55;;
19946;SDS011;10135;50.702;7.276;2023-07-29T17:30:07;1.60;;;1.60;;
19946;SDS011;10135;50.702;7.276;2023-07-29T17:32:08;1.77;;;1.77;;
19946;SDS011;10135;50.702;7.276;2023-07-29T17:34:09;1.52;;;1.45;;
19946;SDS011;10135;50.702;7.276;2023-07-29T17:36:10;1.60;;;1.60;;
19946;SDS011;10135;50.702;7.276;2023-07-29T17:38:11;2.00;;;1.90;;
19946;SDS011;10135;50.702;7.276;2023-07-29T17:40:11;1.60;;;1.60;;
19946;SDS011;10135;50.702;7.276;2023-07-29T17:42:12;1.50;;;1.50;;
19946;SDS011;10135;50.702;7.276;2023-07-29T17:44:13;3.10;;;1.60;;
19946;SDS011;10135;50.702;7.276;2023-07-29T17:46:13;1.85;;;1.30;;
19946;SDS011;10135;50.702;7.276;2023-07-29T17:48:17;1.52;;;1.50;;
19946;SDS011;10135;50.702;7.276;2023-07-29T17:50:17;2.03;;;1.70;;
19946;SDS011;10135;50.702;7.276;2023-07-29T17:52:19;2.17;;;1.80;;
19946;SDS011;10135;50.702;7.276;2023-07-29T17:54:20;1.38;;;1.38;;
19946;SDS011;10135;50.702;7.276;2023-07-29T17:56:20;1.70;;;1.70;;
19946;SDS011;10135;50.702;7.276;2023-07-29T17:58:21;1.67;;;1.60;;
19946;SDS011;10135;50.702;7.276;2023-07-29T18:00:22;1.50;;;1.50;;
19946;SDS011;10135;50.702;7.276;2023-07-29T18:02:22;1.70;;;1.70;;
19946;SDS011;10135;50.702;7.276;2023-07-29T18:04:23;2.00;;;1.90;;
19946;SDS011;10135;50.702;7.276;2023-07-29T18:06:24;1.90;;;1.80;;
19946;SDS011;10135;50.702;7.276;2023-07-29T18:08:24;1.70;;;1.70;;
19946;SDS011;10135;50.702;7.276;2023-07-29T18:10:25;2.00;;;1.90;;
19946;SDS011;10135;50.702;7.276;2023-07-29T18:12:26;1.63;;;1.63;;
19946;SDS011;10135;50.702;7.276;2023-07-29T18:14:27;1.60;;;1.60;;
19946;SDS011;10135;50.702;7.276;2023-07-29T18:16:28;1.73;;;1.73;;
19946;SDS011;10135;50.702;7.276;2023-07-29T18:18:29;1.70;;;1.70;;
19946;SDS011;10135;50.702;7.276;2023-07-29T18:20:30;1.67;;;1.67;;
19946;SDS011;10135;50.702;7.276;2023-07-29T18:22:30;1.80;;;1.70;;
19946;SDS011;10135;50.702;7.276;2023-07-29T18:24:31;1.77;;;1.77;;
19946;SDS011;10135;50.702;7.276;2023-07-29T18:26:32;2.60;;;2.00;;
19946;SDS011;10135;50.702;7.276;2023-07-29T18:28:32;1.58;;;1.58;;
19946;SDS011;10135;50.702;7.276;2023-07-29T18:30:33;1.73;;;1.70;;
19946;SDS011;10135;50.702;7.276;2023-07-29T18:32:34;2.03;;;1.95;;
19946;SDS011;10135;50.702;7.276;2023-07-29T18:34:35;2.30;;;2.10;;
19946;SDS011;10135;50.702;7.276;2023-07-29T18:36:36;2.20;;;2.00;;
19946;SDS011;10135;50.702;7.276;2023-07-29T18:38:37;1.80;;;1.70;;
19946;SDS011;10135;50.702;7.276;2023-07-29T18:40:38;1.90;;;1.75;;
19946;SDS011;10135;50.702;7.276;2023-07-29T18:42:40;1.75;;;1.75;;
19946;SDS011;10135;50.702;7.276;2023-07-29T18:44:41;1.67;;;1.67;;
19946;SDS011;10135;50.702;7.276;2023-07-29T18:46:42;1.70;;;1.60;;
19946;SDS011;10135;50.702;7.276;2023-07-29T18:48:42;1.77;;;1.60;;
19946;SDS011;10135;50.702;7.276;2023-07-29T18:50:43;2.65;;;1.63;;
19946;SDS011;10135;50.702;7.276;2023-07-29T18:52:44;1.80;;;1.70;;
19946;SDS011;10135;50.702;7.276;2023-07-29T18:54:45;1.77;;;1.67;;
19946;SDS011;10135;50.702;7.276;2023-07-29T18:56:45;1.70;;;1.60;;
19946;SDS011;10135;50.702;7.276;2023-07-29T18:58:46;2.00;;;1.90;;
19946;SDS011;10135;50.702;7.276;2023-07-29T19:00:47;1.80;;;1.80;;
19946;SDS011;10135;50.702;7.276;2023-07-29T19:02:48;3.15;;;2.00;;
19946;SDS011;10135;50.702;7.276;2023-07-29T19:04:49;2.33;;;1.75;;
19946;SDS011;10135;50.702;7.276;2023-07-29T19:06:50;1.90;;;1.80;;
19946;SDS011;10135;50.702;7.276;2023-07-29T19:08:55;2.00;;;1.90;;
19946;SDS011;10135;50.702;7.276;2023-07-29T19:10:55;3.53;;;1.90;;
19946;SDS011;10135;50.702;7.276;2023-07-29T19:12:56;1.80;;;1.80;;
19946;SDS011;10135;50.702;7.276;2023-07-29T19:14:57;2.00;;;1.92;;
19946;SDS011;10135;50.702;7.276;2023-07-29T19:16:57;2.08;;;1.90;;
19946;SDS011;10135;50.702;7.276;2023-07-29T19:18:58;2.22;;;2.10;;
19946;SDS011;10135;50.702;7.276;2023-07-29T19:20:58;3.05;;;2.00;;
19946;SDS011;10135;50.702;7.276;2023-07-29T19:22:59;2.00;;;1.90;;
19946;SDS011;10135;50.702;7.276;2023-07-29T19:25:00;2.20;;;2.00;;
19946;SDS011;10135;50.702;7.276;2023-07-29T19:27:00;2.17;;;2.08;;
19946;SDS011;10135;50.702;7.276;2023-07-29T19:29:03;2.20;;;1.92;;
19946;SDS011;10135;50.702;7.276;2023-07-29T19:31:04;2.35;;;1.77;;
19946;SDS011;10135;50.702;7.276;2023-07-29T19:33:05;2.00;;;1.90;;
19946;SDS011;10135;50.702;7.276;2023-07-29T19:35:06;1.95;;;1.85;;